Tuesday, October 17, 2017, 2:52 PM EDT
Back to Local

KIJD, Willimantic Windham Airport

Location: North Windham, CT, United States Lat: 41.75
Local Time: 2:52 PM EDT (18:52 GMT) Lon: -72.183
Time Zone: US/Eastern Elev: 246 ft

Show me the last for .
Show Decoded

2017-10-17 13:52 METAR KIJD 171752Z AUTO 27004KT 10SM CLR 14/M04 A3026 RMK AO2 SLP248 T01391039
                 10144 20017 58017 =
2017-10-17 12:52 METAR KIJD 171652Z AUTO VRB04KT 10SM CLR 12/M02 A3028 RMK AO2 SLP253 T01221022 =
2017-10-17 11:52 METAR KIJD 171552Z AUTO VRB03KT 10SM CLR 12/M02 A3030 RMK AO2 SLP260 T01171022 =
2017-10-17 10:52 METAR KIJD 171452Z AUTO 00000KT 10SM CLR 10/M01 A3031 RMK AO2 SLP264 T01001011
                 50000 =
2017-10-17 09:52 METAR KIJD 171352Z AUTO 34007KT 10SM CLR 08/00 A3032 RMK AO2 SLP269 T00830000 =
2017-10-17 08:52 METAR KIJD 171252Z AUTO 00000KT 10SM CLR 06/01 A3033 RMK AO2 SLP271 T00560011 =
2017-10-17 07:52 METAR KIJD 171152Z AUTO 00000KT 10SM CLR 02/00 A3031 RMK AO2 SLP265 T00220000
                 10044 20000 52021 =
2017-10-17 06:52 METAR KIJD 171052Z AUTO 00000KT 10SM CLR 02/00 A3029 RMK AO2 SLP258 T00170000 =
2017-10-17 05:52 METAR KIJD 170952Z AUTO 35003KT 10SM CLR 01/00 A3026 RMK AO2 SLP249 T00110000 =
2017-10-17 04:52 METAR KIJD 170852Z AUTO 00000KT 10SM CLR 02/01 A3025 RMK AO2 SLP243 T00170011
                 51014 =
2017-10-17 03:52 METAR KIJD 170752Z AUTO 35004KT 10SM CLR 03/01 A3023 RMK AO2 SLP239 T00280011 =
2017-10-17 02:52 METAR KIJD 170652Z AUTO 35003KT 10SM CLR 03/02 A3022 RMK AO2 SLP235 T00330017 =
2017-10-17 01:52 METAR KIJD 170552Z AUTO 35004KT 10SM CLR 04/02 A3020 RMK AO2 SLP229 T00390022
                 10106 20039 51014 =
2017-10-17 00:52 METAR KIJD 170452Z AUTO 36003KT 10SM CLR 06/02 A3019 RMK AO2 SLP224 T00610022
                 402110061 =
2017-10-16 23:52 METAR KIJD 170352Z AUTO 36006KT 10SM CLR 08/03 A3018 RMK AO2 SLP219 T00780028 =
2017-10-16 22:52 METAR KIJD 170252Z AUTO 36005KT 10SM FEW034 SCT055 08/04 A3016 RMK AO2 SLP214
                 T00830039 53023 =
2017-10-16 21:52 METAR KIJD 170152Z AUTO 31005KT 10SM SCT037 09/03 A3014 RMK AO2 SLP207 T00940033
                 =
2017-10-16 20:52 METAR KIJD 170052Z AUTO 32008KT 10SM FEW047 10/03 A3011 RMK AO2 SLP197 T01000033
                 =
2017-10-16 19:52 METAR KIJD 162352Z AUTO 31004KT 10SM BKN045 11/04 A3009 RMK AO2 SLP190 T01060044
                 10133 20106 53027 =
2017-10-16 18:52 METAR KIJD 162252Z AUTO 31005KT 10SM CLR 11/04 A3006 RMK AO2 SLP180 T01110044 =
2017-10-16 17:52 METAR KIJD 162152Z AUTO 33005KT 10SM CLR 12/04 A3004 RMK AO2 SLP174 T01170039 =
2017-10-16 16:52 METAR KIJD 162052Z AUTO 32010KT 10SM CLR 13/04 A3001 RMK AO2 SLP162 T01280044
                 53015 =
2017-10-16 15:52 METAR KIJD 161952Z AUTO 34010KT 10SM CLR 13/05 A3000 RMK AO2 SLP159 T01280050 =

Support USWX by starting your Amazon purchase here.